createdAt,value
2022-12-04T00:00:27.718Z,4.00
2022-12-04T00:01:04.585Z,4.00
2022-12-04T00:01:36.395Z,3.90
2022-12-04T00:02:08.411Z,4.00
2022-12-04T00:02:41.491Z,4.00
2022-12-04T00:03:13.462Z,4.00
2022-12-04T00:03:45.558Z,4.00
2022-12-04T00:04:18.372Z,4.00
2022-12-04T00:04:50.705Z,4.00
2022-12-04T00:05:22.582Z,4.10
2022-12-04T00:06:04.359Z,4.00
2022-12-04T00:06:36.353Z,4.00
2022-12-04T00:07:09.134Z,4.00
2022-12-04T00:07:41.027Z,3.90
2022-12-04T00:08:13.029Z,3.90
2022-12-04T00:08:47.246Z,3.90
2022-12-04T00:09:19.041Z,4.00
2022-12-04T00:09:50.829Z,4.00
2022-12-04T00:10:23.568Z,4.00
2022-12-04T00:10:55.407Z,4.00
2022-12-04T00:11:30.329Z,4.00
2022-12-04T00:12:02.172Z,4.00
2022-12-04T00:12:35.275Z,4.00
2022-12-04T00:13:08.063Z,4.00
2022-12-04T00:13:40.653Z,3.90
2022-12-04T00:14:12.475Z,3.90
2022-12-04T00:15:23.261Z,3.90
2022-12-04T00:15:43.027Z,3.90
2022-12-04T00:16:17.277Z,3.80
2022-12-04T00:16:50.370Z,3.80
2022-12-04T00:17:22.330Z,3.80
2022-12-04T00:17:55.139Z,3.80
2022-12-04T00:18:27.047Z,3.90
2022-12-04T00:18:58.964Z,3.90
2022-12-04T00:19:31.712Z,3.90
2022-12-04T00:20:04.251Z,4.00
2022-12-04T00:20:39.184Z,3.90
2022-12-04T00:21:14.290Z,3.90
2022-12-04T00:21:46.078Z,3.90
2022-12-04T00:22:17.926Z,3.90
2022-12-04T00:22:50.798Z,3.90
2022-12-04T00:23:22.604Z,3.90
2022-12-04T00:23:54.595Z,3.80
2022-12-04T00:24:27.356Z,3.80
2022-12-04T00:24:59.127Z,3.80
2022-12-04T00:25:30.940Z,3.80
2022-12-04T00:26:04.894Z,3.80
2022-12-04T00:26:36.695Z,3.80
2022-12-04T00:27:08.477Z,3.90
2022-12-04T00:27:41.276Z,3.90
2022-12-04T00:28:13.048Z,3.90
2022-12-04T00:28:45.813Z,3.90
2022-12-04T00:29:18.995Z,3.90
2022-12-04T00:29:50.934Z,4.00
2022-12-04T00:30:22.699Z,4.00
2022-12-04T00:30:57.071Z,4.00
2022-12-04T00:31:30.196Z,4.10
2022-12-04T00:32:03.126Z,4.10
2022-12-04T00:32:34.923Z,4.10
2022-12-04T00:33:06.696Z,4.10
2022-12-04T00:33:39.943Z,4.10
2022-12-04T00:34:11.870Z,4.00
2022-12-04T00:34:43.665Z,4.00
2022-12-04T00:35:16.548Z,3.90
2022-12-04T00:35:48.361Z,3.90
2022-12-04T00:36:22.843Z,3.90
2022-12-04T00:36:55.624Z,3.90
2022-12-04T00:37:27.453Z,3.90
2022-12-04T00:37:59.225Z,3.90
2022-12-04T00:38:31.242Z,3.90
2022-12-04T00:39:04.703Z,3.80
2022-12-04T00:39:36.468Z,3.80
2022-12-04T00:40:09.145Z,3.80
2022-12-04T00:40:50.170Z,3.80
2022-12-04T00:41:24.291Z,3.80
2022-12-04T00:41:56.068Z,3.80
2022-12-04T00:42:29.055Z,3.80
2022-12-04T00:43:00.868Z,3.80
2022-12-04T00:43:33.607Z,3.90
2022-12-04T00:44:06.422Z,3.90
2022-12-04T00:44:38.262Z,3.80
2022-12-04T00:45:10.846Z,3.90
2022-12-04T00:45:43.687Z,3.80
2022-12-04T00:46:17.552Z,3.80
2022-12-04T00:46:50.389Z,3.80
2022-12-04T00:47:22.183Z,3.90
2022-12-04T00:47:53.943Z,3.90
2022-12-04T00:48:27.130Z,3.90
2022-12-04T00:49:01.658Z,3.90
2022-12-04T00:49:34.391Z,3.80
2022-12-04T00:50:07.620Z,3.80
2022-12-04T00:50:39.465Z,3.80
2022-12-04T00:51:14.107Z,3.80
2022-12-04T00:51:45.896Z,3.80
2022-12-04T00:52:17.669Z,3.80
2022-12-04T00:52:50.427Z,3.80
2022-12-04T00:53:22.219Z,3.80
2022-12-04T00:53:55.353Z,3.80
2022-12-04T00:54:27.146Z,3.90
2022-12-04T00:54:58.927Z,3.90
2022-12-04T00:55:30.780Z,3.90
2022-12-04T00:56:05.152Z,3.90
2022-12-04T00:56:37.095Z,4.00
2022-12-04T00:57:09.011Z,4.00
2022-12-04T00:57:41.811Z,4.10
2022-12-04T00:58:13.937Z,4.10
2022-12-04T00:58:46.705Z,4.10
2022-12-04T00:59:19.691Z,4.10
2022-12-04T00:59:51.612Z,4.20
2022-12-04T01:00:23.513Z,4.00
2022-12-04T01:01:03.869Z,4.00
2022-12-04T01:01:37.206Z,3.80
2022-12-04T01:02:09.048Z,3.70
2022-12-04T01:02:41.849Z,3.70
2022-12-04T01:03:13.778Z,3.70
2022-12-04T01:03:45.820Z,3.70
2022-12-04T01:04:18.575Z,3.70
2022-12-04T01:04:50.375Z,3.70
2022-12-04T01:05:22.355Z,3.70
2022-12-04T01:05:55.283Z,3.80
2022-12-04T01:06:29.502Z,3.80
2022-12-04T01:07:05.210Z,3.80
2022-12-04T01:07:37.351Z,3.80
2022-12-04T01:08:09.737Z,3.80
2022-12-04T01:08:42.540Z,3.90
2022-12-04T01:09:14.396Z,3.90
2022-12-04T01:09:46.190Z,3.90
2022-12-04T01:10:19.089Z,3.90
2022-12-04T01:10:50.973Z,3.90
2022-12-04T01:11:24.972Z,3.90
2022-12-04T01:11:57.724Z,3.90
2022-12-04T01:12:29.577Z,3.90
2022-12-04T01:13:01.368Z,3.90
2022-12-04T01:13:34.159Z,3.90
2022-12-04T01:14:06.004Z,3.90
2022-12-04T01:14:37.826Z,4.00
2022-12-04T01:15:11.468Z,4.00
2022-12-04T01:15:43.969Z,3.90
2022-12-04T01:16:17.561Z,3.90
2022-12-04T01:16:51.786Z,3.90
2022-12-04T01:17:23.824Z,3.90
2022-12-04T01:17:55.647Z,3.90
2022-12-04T01:18:27.477Z,3.80
2022-12-04T01:19:00.873Z,3.80
2022-12-04T01:19:32.858Z,3.70
2022-12-04T01:20:05.658Z,3.70
2022-12-04T01:20:37.455Z,3.70
2022-12-04T01:21:10.503Z,3.70
2022-12-04T01:21:42.432Z,3.70
2022-12-04T01:22:14.301Z,3.60
2022-12-04T01:22:47.125Z,3.60
2022-12-04T01:23:19.659Z,3.60
2022-12-04T01:23:51.475Z,3.60
2022-12-04T01:24:24.268Z,3.70
2022-12-04T01:24:56.618Z,3.70
2022-12-04T01:25:28.423Z,3.60
2022-12-04T01:26:01.249Z,3.60
2022-12-04T01:26:33.219Z,3.60
2022-12-04T01:27:05.037Z,3.60
2022-12-04T01:27:37.837Z,3.60
2022-12-04T01:28:10.087Z,3.60
2022-12-04T01:28:42.061Z,3.60
2022-12-04T01:29:14.833Z,3.70
2022-12-04T01:29:46.608Z,3.70
2022-12-04T01:30:18.728Z,3.70
2022-12-04T01:31:00.045Z,3.70
2022-12-04T01:31:32.017Z,3.70
2022-12-04T01:32:06.708Z,3.80
2022-12-04T01:32:38.577Z,3.80
2022-12-04T01:33:10.396Z,3.80
2022-12-04T01:33:44.166Z,3.80
2022-12-04T01:34:15.974Z,3.80
2022-12-04T01:34:47.855Z,3.70
2022-12-04T01:35:20.633Z,3.70
2022-12-04T01:35:53.881Z,3.70
2022-12-04T01:36:28.128Z,3.70
2022-12-04T01:37:00.890Z,3.80
2022-12-04T01:37:33.214Z,3.80
2022-12-04T01:38:04.998Z,3.80
2022-12-04T01:38:38.549Z,3.80
2022-12-04T01:39:10.304Z,3.80
2022-12-04T01:39:43.050Z,3.70
2022-12-04T01:40:16.575Z,3.70
2022-12-04T01:40:48.856Z,3.70
2022-12-04T01:41:24.189Z,3.70
2022-12-04T01:41:57.041Z,3.80
2022-12-04T01:42:28.887Z,3.80
2022-12-04T01:43:00.652Z,3.80
2022-12-04T01:43:35.586Z,3.90
2022-12-04T01:44:10.478Z,3.90
2022-12-04T01:44:43.611Z,3.90
2022-12-04T01:45:41.336Z,3.90
2022-12-04T01:46:13.356Z,3.90
2022-12-04T01:46:46.383Z,3.80
2022-12-04T01:47:20.502Z,3.80
2022-12-04T01:47:54.696Z,3.80
2022-12-04T01:48:30.753Z,3.80
2022-12-04T01:49:04.968Z,3.80
2022-12-04T01:49:41.321Z,3.80
2022-12-04T01:50:13.110Z,3.80
2022-12-04T01:50:45.738Z,3.80
2022-12-04T01:51:20.600Z,3.80
2022-12-04T01:51:58.821Z,3.80
2022-12-04T01:52:31.004Z,3.80
2022-12-04T01:53:02.822Z,3.80
2022-12-04T01:53:38.246Z,3.80
2022-12-04T01:54:16.366Z,3.80
2022-12-04T01:54:52.679Z,3.80
2022-12-04T01:55:24.844Z,3.70
2022-12-04T01:55:57.405Z,3.70
2022-12-04T01:56:37.111Z,3.80
2022-12-04T01:57:13.028Z,3.80
2022-12-04T01:57:46.204Z,3.80
2022-12-04T01:58:23.449Z,3.80
2022-12-04T01:58:58.847Z,3.90
2022-12-04T01:59:36.195Z,3.90
2022-12-04T02:00:12.094Z,3.90
2022-12-04T02:00:48.520Z,3.90
2022-12-04T02:01:26.030Z,3.90
2022-12-04T02:02:04.055Z,3.90
2022-12-04T02:02:40.122Z,3.90
2022-12-04T02:03:14.576Z,3.80
2022-12-04T02:03:46.872Z,3.80
2022-12-04T02:04:19.217Z,3.80
2022-12-04T02:04:52.568Z,3.80
2022-12-04T02:05:25.049Z,3.80
2022-12-04T02:05:56.864Z,3.80
2022-12-04T02:06:28.674Z,3.80
2022-12-04T02:07:01.497Z,3.80
2022-12-04T02:07:34.134Z,3.80
2022-12-04T02:08:06.179Z,3.80
2022-12-04T02:08:39.618Z,3.70
2022-12-04T02:09:11.788Z,3.60
2022-12-04T02:09:45.374Z,3.60
2022-12-04T02:10:24.282Z,3.60
2022-12-04T02:11:07.751Z,3.50
2022-12-04T02:11:46.191Z,3.50
2022-12-04T02:12:25.128Z,3.50
2022-12-04T02:13:03.422Z,3.50
2022-12-04T02:13:42.227Z,3.50
2022-12-04T02:14:26.868Z,3.50
2022-12-04T02:15:08.113Z,3.50
2022-12-04T02:15:47.881Z,3.40
2022-12-04T02:16:26.097Z,3.50
2022-12-04T02:17:08.558Z,3.50
2022-12-04T02:17:51.262Z,3.50
2022-12-04T02:18:34.755Z,3.50
2022-12-04T02:19:26.289Z,3.50
2022-12-04T02:20:30.916Z,3.60
2022-12-04T02:21:09.299Z,3.50
2022-12-04T02:21:47.541Z,3.50
2022-12-04T02:22:31.527Z,3.50
2022-12-04T02:23:33.433Z,3.50
2022-12-04T02:24:33.113Z,3.50
2022-12-04T02:25:12.843Z,3.40
2022-12-04T02:25:53.182Z,3.40
2022-12-04T02:26:37.356Z,3.40
2022-12-04T02:27:18.783Z,3.40
2022-12-04T02:28:03.093Z,3.40
2022-12-04T02:28:41.915Z,3.40
2022-12-04T02:29:23.565Z,3.40
2022-12-04T02:30:00.913Z,3.40
2022-12-04T02:30:37.947Z,3.40
2022-12-04T02:31:15.422Z,3.40
2022-12-04T02:31:51.650Z,3.40
2022-12-04T02:32:29.334Z,3.40
2022-12-04T02:33:05.431Z,3.50
2022-12-04T02:33:44.977Z,3.50
2022-12-04T02:34:23.115Z,3.60
2022-12-04T02:34:59.794Z,3.60
2022-12-04T02:35:37.068Z,3.60
2022-12-04T02:36:13.751Z,3.60
2022-12-04T02:36:52.546Z,3.60
2022-12-04T02:37:30.854Z,3.60
2022-12-04T02:38:10.331Z,3.70
2022-12-04T02:38:47.196Z,3.70
2022-12-04T02:39:24.556Z,3.70
2022-12-04T02:40:02.881Z,3.70
2022-12-04T02:40:41.841Z,3.70
2022-12-04T02:41:18.270Z,3.70
2022-12-04T02:41:57.289Z,3.70
2022-12-04T02:42:35.723Z,3.70
2022-12-04T02:43:14.990Z,3.70
2022-12-04T02:43:50.782Z,3.70
2022-12-04T02:44:26.935Z,3.70
2022-12-04T02:45:02.461Z,3.70
2022-12-04T02:45:40.148Z,3.70
2022-12-04T02:46:19.626Z,3.70
2022-12-04T02:46:54.915Z,3.70
2022-12-04T02:47:27.955Z,3.70
2022-12-04T02:48:03.968Z,3.70
2022-12-04T02:48:40.053Z,3.70
2022-12-04T02:49:18.273Z,3.70
2022-12-04T02:49:55.028Z,3.70
2022-12-04T02:50:28.318Z,3.70
2022-12-04T02:51:02.591Z,3.70
2022-12-04T02:51:38.371Z,3.70
2022-12-04T02:52:14.112Z,3.70
2022-12-04T02:52:49.480Z,3.70
2022-12-04T02:53:28.335Z,3.70
2022-12-04T02:54:04.481Z,3.70
2022-12-04T02:54:39.551Z,3.70
2022-12-04T02:55:17.268Z,3.60
2022-12-04T02:55:54.274Z,3.70
2022-12-04T02:56:30.276Z,3.70
2022-12-04T02:57:07.107Z,3.70
2022-12-04T02:57:44.079Z,3.70
2022-12-04T02:58:25.443Z,3.70
2022-12-04T02:59:00.811Z,3.80
2022-12-04T02:59:36.719Z,3.80
2022-12-04T03:00:09.825Z,3.80
2022-12-04T03:00:45.079Z,3.80
2022-12-04T03:01:21.064Z,3.80
2022-12-04T03:01:57.416Z,3.80
2022-12-04T03:02:35.304Z,3.80
2022-12-04T03:03:11.795Z,3.70
2022-12-04T03:03:44.296Z,3.70
2022-12-04T03:04:20.573Z,3.70
2022-12-04T03:04:56.026Z,3.70
2022-12-04T03:05:33.948Z,3.70
2022-12-04T03:06:11.124Z,3.80
2022-12-04T03:06:45.741Z,3.70
2022-12-04T03:07:22.097Z,3.60
2022-12-04T03:07:58.462Z,3.60
2022-12-04T03:08:37.400Z,3.70
2022-12-04T03:09:13.128Z,3.60
2022-12-04T03:09:52.291Z,3.60
2022-12-04T03:10:30.191Z,3.70
2022-12-04T03:11:02.285Z,3.70
2022-12-04T03:11:36.878Z,3.70
2022-12-04T03:12:14.379Z,3.70
2022-12-04T03:12:50.488Z,3.70
2022-12-04T03:13:30.288Z,3.70
2022-12-04T03:14:08.925Z,3.80
2022-12-04T03:14:43.859Z,3.80
2022-12-04T03:15:22.533Z,3.80
2022-12-04T03:16:00.073Z,3.70
2022-12-04T03:16:35.412Z,3.70
2022-12-04T03:17:13.873Z,3.70
2022-12-04T03:17:52.384Z,3.70
2022-12-04T03:18:29.803Z,3.70
2022-12-04T03:19:07.145Z,3.70
2022-12-04T03:19:43.758Z,3.70
2022-12-04T03:20:17.751Z,3.70
2022-12-04T03:20:54.858Z,3.60
2022-12-04T03:21:29.959Z,3.70
2022-12-04T03:22:07.528Z,3.60
2022-12-04T03:22:44.002Z,3.60
2022-12-04T03:23:20.735Z,3.60
2022-12-04T03:23:59.329Z,3.70
2022-12-04T03:24:33.863Z,3.70
2022-12-04T03:25:07.766Z,3.70
2022-12-04T03:25:46.770Z,3.70
2022-12-04T03:26:25.415Z,3.70
2022-12-04T03:27:12.348Z,3.70
2022-12-04T03:27:52.724Z,3.70
2022-12-04T03:28:31.482Z,3.70
2022-12-04T03:29:07.868Z,3.70
2022-12-04T03:29:44.977Z,3.70
2022-12-04T03:30:18.838Z,3.70
2022-12-04T03:30:57.251Z,3.70
2022-12-04T03:31:43.536Z,3.70
2022-12-04T03:32:21.990Z,3.70
2022-12-04T03:32:58.474Z,3.70
2022-12-04T03:33:36.748Z,3.70
2022-12-04T03:34:11.413Z,3.70
2022-12-04T03:34:51.433Z,3.70
2022-12-04T03:35:29.724Z,3.80
2022-12-04T03:36:08.337Z,3.80
2022-12-04T03:36:47.804Z,3.80
2022-12-04T03:37:27.019Z,3.80
2022-12-04T03:38:04.619Z,3.90
2022-12-04T03:38:39.149Z,3.80
2022-12-04T03:39:19.284Z,3.80
2022-12-04T03:39:58.733Z,3.70
2022-12-04T03:40:37.643Z,3.70
2022-12-04T03:41:19.747Z,3.70
2022-12-04T03:41:57.828Z,3.70
2022-12-04T03:42:35.688Z,3.60
2022-12-04T03:43:15.963Z,3.60
2022-12-04T03:43:53.535Z,3.60
2022-12-04T03:44:28.418Z,3.60
2022-12-04T03:45:04.378Z,3.60
2022-12-04T03:45:45.133Z,3.60
2022-12-04T03:46:23.525Z,3.70
2022-12-04T03:47:00.323Z,3.70
2022-12-04T03:47:37.456Z,3.70
2022-12-04T03:48:22.513Z,3.70
2022-12-04T03:49:00.597Z,3.70
2022-12-04T03:49:41.799Z,3.80
2022-12-04T03:50:17.600Z,3.80
2022-12-04T03:50:55.926Z,3.80
2022-12-04T03:51:34.395Z,3.70
2022-12-04T03:52:14.300Z,3.70
2022-12-04T03:52:50.911Z,3.80
2022-12-04T03:53:31.406Z,3.80
2022-12-04T03:54:08.161Z,3.70
2022-12-04T03:54:46.183Z,3.70
2022-12-04T03:55:25.576Z,3.70
2022-12-04T03:56:03.839Z,3.80
2022-12-04T03:56:39.363Z,3.80
2022-12-04T03:57:14.570Z,3.80
2022-12-04T03:57:49.238Z,3.80
2022-12-04T03:58:27.991Z,3.80
2022-12-04T03:59:09.165Z,3.80
2022-12-04T03:59:44.983Z,3.80
2022-12-04T04:00:18.350Z,3.80
2022-12-04T04:00:54.038Z,3.80
2022-12-04T04:01:30.389Z,3.80
2022-12-04T04:02:04.987Z,3.90
2022-12-04T04:02:42.381Z,3.90
2022-12-04T04:03:20.073Z,3.90
2022-12-04T04:03:54.652Z,3.90
2022-12-04T04:04:32.164Z,3.80
2022-12-04T04:05:08.209Z,3.90
2022-12-04T04:05:43.863Z,3.80
2022-12-04T04:06:22.946Z,3.80
2022-12-04T04:06:59.328Z,3.80
2022-12-04T04:07:37.775Z,3.80
2022-12-04T04:08:30.946Z,3.80
2022-12-04T04:09:07.507Z,3.80
2022-12-04T04:09:43.046Z,3.80
2022-12-04T04:10:17.567Z,3.80
2022-12-04T04:10:50.591Z,3.80
2022-12-04T04:11:27.647Z,3.80
2022-12-04T04:12:07.636Z,3.80
2022-12-04T04:12:43.704Z,3.80
2022-12-04T04:13:38.947Z,3.80
2022-12-04T04:14:37.674Z,3.80
2022-12-04T04:15:46.557Z,3.80
2022-12-04T04:16:40.014Z,3.80
2022-12-04T04:17:38.512Z,3.70
2022-12-04T04:18:29.400Z,3.70
2022-12-04T04:19:21.657Z,3.70
2022-12-04T04:20:18.380Z,3.70
2022-12-04T04:21:13.251Z,3.70
2022-12-04T04:22:07.367Z,3.70
2022-12-04T04:22:58.766Z,3.70
2022-12-04T04:23:52.660Z,3.70
2022-12-04T04:24:36.832Z,3.80
2022-12-04T04:25:13.206Z,3.70
2022-12-04T04:25:47.080Z,3.80
2022-12-04T04:26:20.020Z,3.80
2022-12-04T04:26:52.808Z,3.80
2022-12-04T04:27:24.639Z,3.80
2022-12-04T04:27:59.304Z,3.80
2022-12-04T04:28:33.413Z,3.80
2022-12-04T04:29:05.219Z,3.80
2022-12-04T04:29:39.779Z,3.80
2022-12-04T04:30:11.914Z,3.80
2022-12-04T04:30:43.756Z,3.80
2022-12-04T04:31:24.844Z,3.80
2022-12-04T04:32:02.633Z,3.70
2022-12-04T04:32:39.642Z,3.70
2022-12-04T04:33:15.052Z,3.60
2022-12-04T04:33:54.263Z,3.60
2022-12-04T04:34:32.202Z,3.60
2022-12-04T04:35:15.003Z,3.60
2022-12-04T04:35:52.389Z,3.60
2022-12-04T04:36:33.062Z,3.60
2022-12-04T04:37:11.475Z,3.60
2022-12-04T04:37:54.696Z,3.60
2022-12-04T04:38:32.718Z,3.70
2022-12-04T04:39:11.910Z,3.60
2022-12-04T04:39:51.296Z,3.70
2022-12-04T04:40:30.039Z,3.70
2022-12-04T04:41:08.407Z,3.70
2022-12-04T04:41:45.276Z,3.70
2022-12-04T04:42:24.665Z,3.70
2022-12-04T04:43:03.228Z,3.70
2022-12-04T04:43:40.417Z,3.70
2022-12-04T04:44:19.875Z,3.70
2022-12-04T04:44:59.195Z,3.70
2022-12-04T04:45:36.372Z,3.70
2022-12-04T04:46:14.167Z,3.70
2022-12-04T04:46:51.803Z,3.70
2022-12-04T04:47:31.308Z,3.70
2022-12-04T04:48:06.932Z,3.70
2022-12-04T04:48:44.739Z,3.70
2022-12-04T04:49:18.088Z,3.70
2022-12-04T04:49:53.457Z,3.70
2022-12-04T04:50:26.630Z,3.70
2022-12-04T04:51:00.165Z,3.70
2022-12-04T04:51:34.865Z,3.80
2022-12-04T04:52:08.587Z,3.80
2022-12-04T04:52:45.618Z,3.80
2022-12-04T04:53:21.558Z,3.80
2022-12-04T04:53:57.801Z,3.80
2022-12-04T04:54:30.982Z,3.80
2022-12-04T04:55:04.472Z,3.70
2022-12-04T04:55:37.734Z,3.80
2022-12-04T04:56:09.845Z,3.70
2022-12-04T04:56:42.880Z,3.70
2022-12-04T04:57:26.915Z,3.70
2022-12-04T04:58:07.013Z,3.70
2022-12-04T04:58:40.014Z,3.70
2022-12-04T04:59:12.616Z,3.70
2022-12-04T04:59:44.426Z,3.60
2022-12-04T05:00:21.177Z,3.60
2022-12-04T05:00:59.733Z,3.60
2022-12-04T05:01:31.663Z,3.50
2022-12-04T05:02:03.768Z,3.40
2022-12-04T05:02:36.975Z,3.30
2022-12-04T05:03:09.715Z,3.30
2022-12-04T05:03:42.456Z,3.30
2022-12-04T05:04:14.601Z,3.30
2022-12-04T05:04:47.391Z,3.30
2022-12-04T05:05:19.252Z,3.30
2022-12-04T05:05:51.294Z,3.30
2022-12-04T05:06:24.053Z,3.30
2022-12-04T05:06:55.874Z,3.30
2022-12-04T05:07:27.800Z,3.30
2022-12-04T05:08:00.659Z,3.40
2022-12-04T05:08:32.916Z,3.40
2022-12-04T05:09:05.107Z,3.40
2022-12-04T05:09:41.193Z,3.50
2022-12-04T05:10:13.932Z,3.50
2022-12-04T05:10:45.797Z,3.50
2022-12-04T05:11:18.700Z,3.60
2022-12-04T05:11:50.477Z,3.60
2022-12-04T05:12:22.296Z,3.60
2022-12-04T05:12:55.051Z,3.60
2022-12-04T05:13:28.672Z,3.70
2022-12-04T05:14:00.500Z,3.70
2022-12-04T05:14:33.293Z,3.70
2022-12-04T05:15:05.962Z,3.70
2022-12-04T05:15:39.564Z,3.80
2022-12-04T05:16:14.757Z,3.80
2022-12-04T05:16:46.601Z,3.80
2022-12-04T05:17:18.406Z,3.80
2022-12-04T05:17:51.161Z,3.80
2022-12-04T05:18:22.977Z,3.80
2022-12-04T05:19:12.906Z,3.80
2022-12-04T05:19:53.882Z,3.90
2022-12-04T05:20:27.034Z,3.90
2022-12-04T05:20:58.845Z,3.90
2022-12-04T05:21:30.877Z,3.90
2022-12-04T05:22:02.678Z,4.00
2022-12-04T05:22:37.585Z,4.00
2022-12-04T05:23:09.402Z,4.00
2022-12-04T05:23:41.175Z,4.00
2022-12-04T05:24:13.004Z,4.00
2022-12-04T05:24:45.807Z,4.00
2022-12-04T05:25:17.777Z,4.00
2022-12-04T05:25:49.671Z,4.00
2022-12-04T05:26:22.537Z,4.10
2022-12-04T05:26:54.372Z,4.00
2022-12-04T05:27:27.800Z,4.10
2022-12-04T05:28:00.588Z,4.10
2022-12-04T05:28:32.421Z,4.00
2022-12-04T05:29:04.197Z,4.00
2022-12-04T05:29:36.333Z,4.00
2022-12-04T05:30:11.440Z,4.10
2022-12-04T05:30:44.584Z,4.10
2022-12-04T05:31:16.852Z,4.10
2022-12-04T05:31:48.847Z,4.10
2022-12-04T05:32:22.153Z,4.10
2022-12-04T05:32:54.073Z,4.10
2022-12-04T05:33:25.851Z,4.10
2022-12-04T05:33:57.677Z,4.10
2022-12-04T05:34:30.492Z,4.10
2022-12-04T05:35:07.705Z,4.10
2022-12-04T05:35:42.520Z,4.10
2022-12-04T05:36:15.366Z,4.10
2022-12-04T05:36:47.181Z,4.10
2022-12-04T05:37:19.524Z,4.10
2022-12-04T05:37:52.311Z,4.10
2022-12-04T05:38:24.120Z,4.10
2022-12-04T05:38:55.922Z,4.10
2022-12-04T05:39:28.833Z,4.00
2022-12-04T05:40:00.615Z,4.00
2022-12-04T05:40:33.442Z,4.00
2022-12-04T05:41:06.570Z,4.10
2022-12-04T05:41:38.350Z,4.10
2022-12-04T05:42:11.287Z,4.10
2022-12-04T05:42:43.137Z,4.10
2022-12-04T05:43:15.301Z,4.10
2022-12-04T05:43:47.095Z,4.00
2022-12-04T05:44:20.101Z,4.00
2022-12-04T05:44:52.047Z,4.00
2022-12-04T05:45:23.816Z,4.00
2022-12-04T05:46:01.613Z,4.00
2022-12-04T05:46:33.490Z,4.00
2022-12-04T05:47:05.594Z,4.00
2022-12-04T05:47:42.154Z,4.00
2022-12-04T05:48:13.968Z,4.00
2022-12-04T05:48:45.768Z,4.00
2022-12-04T05:49:17.550Z,4.00
2022-12-04T05:49:50.300Z,4.00
2022-12-04T05:50:22.083Z,4.00
2022-12-04T05:50:53.836Z,4.00
2022-12-04T05:51:25.637Z,4.00
2022-12-04T05:51:58.944Z,4.00
2022-12-04T05:52:30.732Z,4.00
2022-12-04T05:53:02.658Z,4.00
2022-12-04T05:53:35.600Z,4.10
2022-12-04T05:54:07.390Z,4.10
2022-12-04T05:54:39.392Z,4.10
2022-12-04T05:55:12.153Z,4.10
2022-12-04T05:55:43.936Z,4.10
2022-12-04T05:56:15.724Z,4.10
2022-12-04T05:56:48.607Z,4.20
2022-12-04T05:57:21.638Z,4.20
2022-12-04T05:57:55.997Z,4.20
2022-12-04T05:58:28.596Z,4.20
2022-12-04T05:59:01.399Z,4.20
2022-12-04T05:59:33.322Z,4.20
2022-12-04T06:00:06.609Z,4.20
2022-12-04T06:00:39.356Z,4.20
2022-12-04T06:01:15.299Z,4.20
2022-12-04T06:01:47.181Z,4.20
2022-12-04T06:02:20.109Z,4.10
2022-12-04T06:02:52.067Z,4.10
2022-12-04T06:03:24.006Z,4.10
2022-12-04T06:03:56.881Z,4.10
2022-12-04T06:04:29.071Z,4.10
2022-12-04T06:05:00.883Z,4.10
2022-12-04T06:05:34.037Z,4.10
2022-12-04T06:06:14.893Z,4.10
2022-12-04T06:06:53.601Z,4.00
2022-12-04T06:07:25.403Z,4.00
2022-12-04T06:07:57.221Z,4.00
2022-12-04T06:08:30.010Z,4.10
2022-12-04T06:09:03.292Z,4.10
2022-12-04T06:09:35.079Z,4.10
2022-12-04T06:10:08.449Z,4.10
2022-12-04T06:10:40.229Z,4.10
2022-12-04T06:11:12.954Z,4.10
2022-12-04T06:11:45.842Z,4.10
2022-12-04T06:12:17.636Z,4.10
2022-12-04T06:12:49.419Z,4.10
2022-12-04T06:13:22.160Z,4.10
2022-12-04T06:13:54.720Z,4.10
2022-12-04T06:14:26.619Z,4.10
2022-12-04T06:14:59.474Z,4.10
2022-12-04T06:15:31.284Z,4.10
2022-12-04T06:16:03.260Z,4.10
2022-12-04T06:16:39.716Z,4.10
2022-12-04T06:17:11.510Z,4.10
2022-12-04T06:17:43.303Z,4.10
2022-12-04T06:18:16.086Z,4.10
2022-12-04T06:18:49.651Z,4.10
2022-12-04T06:19:22.825Z,4.00
2022-12-04T06:19:56.330Z,4.00
2022-12-04T06:20:28.462Z,4.00
2022-12-04T06:21:00.431Z,4.10
2022-12-04T06:21:35.212Z,4.10
2022-12-04T06:22:07.001Z,4.10
2022-12-04T06:22:38.783Z,4.10
2022-12-04T06:23:11.580Z,4.00
2022-12-04T06:23:43.361Z,3.90
2022-12-04T06:24:19.095Z,3.90
2022-12-04T06:24:50.874Z,3.90
2022-12-04T06:25:22.667Z,3.90
2022-12-04T06:25:56.235Z,3.90
2022-12-04T06:26:29.157Z,3.90
2022-12-04T06:27:52.858Z,3.90
2022-12-04T06:28:25.640Z,3.90
2022-12-04T06:28:58.863Z,3.90
2022-12-04T06:29:30.792Z,3.90
2022-12-04T06:30:04.096Z,3.90
2022-12-04T06:30:35.913Z,3.90
2022-12-04T06:31:10.148Z,3.90
2022-12-04T06:31:44.496Z,3.90
2022-12-04T06:32:21.243Z,3.90
2022-12-04T06:32:53.714Z,4.00
2022-12-04T06:33:26.493Z,4.00
2022-12-04T06:33:58.549Z,4.00
2022-12-04T06:34:31.390Z,4.00
2022-12-04T06:35:04.110Z,4.00
2022-12-04T06:35:35.897Z,4.00
2022-12-04T06:36:11.445Z,4.00
2022-12-04T06:36:44.220Z,4.10
2022-12-04T06:37:16.018Z,4.10
2022-12-04T06:37:48.061Z,4.10
2022-12-04T06:38:21.096Z,4.10
2022-12-04T06:38:55.600Z,4.10
2022-12-04T06:39:27.366Z,4.10
2022-12-04T06:40:00.211Z,4.10
2022-12-04T06:40:32.060Z,4.30
2022-12-04T06:41:04.916Z,4.10
2022-12-04T06:41:37.763Z,4.10
2022-12-04T06:42:09.572Z,4.10
2022-12-04T06:42:41.374Z,4.00
2022-12-04T06:43:13.146Z,4.00
2022-12-04T06:43:46.027Z,3.90
2022-12-04T06:44:17.838Z,3.90
2022-12-04T06:44:49.639Z,3.90
2022-12-04T06:45:22.383Z,4.00
2022-12-04T06:46:01.024Z,4.00
2022-12-04T06:46:34.522Z,4.00
2022-12-04T06:47:09.413Z,4.00
2022-12-04T06:47:41.213Z,4.00
2022-12-04T06:48:13.036Z,4.00
2022-12-04T06:48:46.467Z,4.00
2022-12-04T06:49:22.535Z,4.00
2022-12-04T06:49:55.448Z,4.00
2022-12-04T06:50:27.444Z,4.00
2022-12-04T06:51:00.415Z,4.00
2022-12-04T06:51:34.656Z,4.00
2022-12-04T06:52:06.466Z,4.00
2022-12-04T06:52:38.259Z,4.10
2022-12-04T06:53:11.028Z,4.10
2022-12-04T06:53:43.268Z,4.10
2022-12-04T06:54:15.088Z,4.10
2022-12-04T06:54:47.863Z,4.00
2022-12-04T06:55:19.685Z,3.90
2022-12-04T06:55:51.455Z,3.90
2022-12-04T06:56:26.567Z,3.90
2022-12-04T06:56:58.353Z,3.90
2022-12-04T06:57:30.213Z,3.90
2022-12-04T06:58:02.990Z,3.90
2022-12-04T06:58:35.300Z,3.90
2022-12-04T06:59:08.118Z,3.80
2022-12-04T06:59:40.107Z,3.80
2022-12-04T07:00:12.552Z,3.80
2022-12-04T07:00:45.369Z,3.80
2022-12-04T07:01:18.804Z,3.70
2022-12-04T07:01:51.783Z,3.70
2022-12-04T07:02:25.120Z,3.70
2022-12-04T07:02:56.967Z,3.70
2022-12-04T07:03:29.734Z,3.70
2022-12-04T07:04:03.904Z,3.70
2022-12-04T07:04:35.767Z,3.70
2022-12-04T07:05:09.061Z,3.70
2022-12-04T07:05:40.850Z,3.70
2022-12-04T07:06:15.059Z,3.70
2022-12-04T07:06:47.836Z,3.70
2022-12-04T07:07:19.592Z,3.70
2022-12-04T07:07:51.396Z,3.80
2022-12-04T07:08:24.235Z,3.80
2022-12-04T07:08:59.292Z,3.80
2022-12-04T07:09:31.115Z,3.80
2022-12-04T07:10:04.124Z,3.70
2022-12-04T07:10:36.493Z,3.70
2022-12-04T07:11:08.645Z,3.70
2022-12-04T07:11:42.805Z,3.70
2022-12-04T07:12:15.249Z,3.70
2022-12-04T07:12:47.169Z,3.70
2022-12-04T07:13:19.927Z,3.70
2022-12-04T07:13:52.055Z,3.80
2022-12-04T07:14:23.911Z,3.80
2022-12-04T07:14:56.698Z,3.80
2022-12-04T07:15:28.515Z,3.80
2022-12-04T07:16:01.229Z,3.80
2022-12-04T07:16:40.312Z,3.80
2022-12-04T07:17:13.068Z,3.90
2022-12-04T07:17:46.270Z,3.90
2022-12-04T07:18:18.989Z,3.90
2022-12-04T07:18:53.201Z,4.00
2022-12-04T07:19:24.994Z,4.00
2022-12-04T07:19:58.210Z,4.00
2022-12-04T07:20:31.010Z,4.00
2022-12-04T07:21:05.929Z,4.00
2022-12-04T07:21:38.718Z,4.00
2022-12-04T07:22:10.534Z,4.00
2022-12-04T07:22:42.331Z,4.00
2022-12-04T07:23:15.146Z,3.90
2022-12-04T07:23:49.476Z,4.00
2022-12-04T07:24:21.315Z,4.00
2022-12-04T07:24:54.162Z,4.00
2022-12-04T07:25:29.073Z,3.90
2022-12-04T07:26:05.511Z,3.90
2022-12-04T07:26:38.272Z,3.90
2022-12-04T07:27:10.067Z,3.80
2022-12-04T07:27:41.850Z,3.90
2022-12-04T07:28:14.614Z,3.90
2022-12-04T07:28:46.974Z,3.90
2022-12-04T07:29:18.781Z,3.90
2022-12-04T07:29:53.230Z,3.90
2022-12-04T07:30:25.097Z,3.80
2022-12-04T07:30:56.868Z,3.80
2022-12-04T07:31:30.599Z,3.80
2022-12-04T07:32:02.511Z,3.70
2022-12-04T07:32:34.451Z,3.70
2022-12-04T07:33:09.624Z,3.70
2022-12-04T07:33:42.199Z,3.70
2022-12-04T07:34:15.035Z,3.70
2022-12-04T07:34:46.863Z,3.70
2022-12-04T07:35:18.762Z,3.70
2022-12-04T07:35:56.559Z,3.70
2022-12-04T07:36:28.516Z,3.70
2022-12-04T07:37:01.377Z,3.70
2022-12-04T07:37:36.275Z,3.80
2022-12-04T07:38:09.047Z,3.80
2022-12-04T07:38:41.513Z,3.80
2022-12-04T07:39:14.275Z,3.70
2022-12-04T07:39:46.049Z,3.80
2022-12-04T07:40:18.945Z,3.70
2022-12-04T07:40:50.835Z,3.70
2022-12-04T07:41:22.918Z,3.70
2022-12-04T07:41:55.676Z,3.70
2022-12-04T07:42:28.498Z,3.80
2022-12-04T07:43:00.311Z,3.80
2022-12-04T07:43:34.239Z,3.80
2022-12-04T07:44:06.089Z,3.80
2022-12-04T07:44:38.887Z,3.80
2022-12-04T07:45:11.088Z,3.80
2022-12-04T07:45:42.959Z,3.70